sensor_id;sensor_type;location;lat;lon;timestamp;P1;durP1;ratioP1;P2;durP2;ratioP2
9799;SDS011;4939;52.00085300;4.17406100;2023-07-29T00:01:33;4.55;;;1.77;;
9799;SDS011;4939;52.00085300;4.17406100;2023-07-29T00:03:59;5.22;;;1.23;;
9799;SDS011;4939;52.00085300;4.17406100;2023-07-29T00:06:25;5.15;;;1.30;;
9799;SDS011;4939;52.00085300;4.17406100;2023-07-29T00:08:51;4.07;;;1.05;;
9799;SDS011;4939;52.00085300;4.17406100;2023-07-29T00:11:16;4.35;;;1.00;;
9799;SDS011;4939;52.00085300;4.17406100;2023-07-29T00:13:42;3.45;;;1.17;;
9799;SDS011;4939;52.00085300;4.17406100;2023-07-29T00:16:08;3.10;;;1.05;;
9799;SDS011;4939;52.00085300;4.17406100;2023-07-29T00:18:33;4.65;;;1.27;;
9799;SDS011;4939;52.00085300;4.17406100;2023-07-29T00:20:59;3.20;;;1.27;;
9799;SDS011;4939;52.00085300;4.17406100;2023-07-29T00:23:25;3.28;;;1.08;;
9799;SDS011;4939;52.00085300;4.17406100;2023-07-29T00:25:50;2.75;;;1.13;;
9799;SDS011;4939;52.00085300;4.17406100;2023-07-29T00:28:16;3.85;;;1.35;;
9799;SDS011;4939;52.00085300;4.17406100;2023-07-29T00:30:42;4.22;;;1.30;;
9799;SDS011;4939;52.00085300;4.17406100;2023-07-29T00:33:07;3.33;;;1.42;;
9799;SDS011;4939;52.00085300;4.17406100;2023-07-29T00:35:34;3.92;;;1.40;;
9799;SDS011;4939;52.00085300;4.17406100;2023-07-29T00:37:59;5.75;;;1.45;;
9799;SDS011;4939;52.00085300;4.17406100;2023-07-29T00:40:25;3.28;;;1.30;;
9799;SDS011;4939;52.00085300;4.17406100;2023-07-29T00:42:53;3.50;;;1.27;;
9799;SDS011;4939;52.00085300;4.17406100;2023-07-29T00:45:19;6.25;;;1.42;;
9799;SDS011;4939;52.00085300;4.17406100;2023-07-29T00:47:45;6.22;;;1.30;;
9799;SDS011;4939;52.00085300;4.17406100;2023-07-29T00:50:12;5.38;;;1.40;;
9799;SDS011;4939;52.00085300;4.17406100;2023-07-29T00:52:39;4.70;;;1.80;;
9799;SDS011;4939;52.00085300;4.17406100;2023-07-29T00:55:06;5.28;;;1.50;;
9799;SDS011;4939;52.00085300;4.17406100;2023-07-29T00:57:32;5.03;;;1.58;;
9799;SDS011;4939;52.00085300;4.17406100;2023-07-29T00:59:59;4.18;;;1.35;;
9799;SDS011;4939;52.00085300;4.17406100;2023-07-29T01:02:25;5.05;;;1.20;;
9799;SDS011;4939;52.00085300;4.17406100;2023-07-29T01:04:55;3.75;;;1.27;;
9799;SDS011;4939;52.00085300;4.17406100;2023-07-29T01:07:25;5.22;;;1.35;;
9799;SDS011;4939;52.00085300;4.17406100;2023-07-29T01:10:10;5.83;;;1.30;;
9799;SDS011;4939;52.00085300;4.17406100;2023-07-29T01:18:32;6.22;;;1.50;;
9799;SDS011;4939;52.00085300;4.17406100;2023-07-29T01:21:04;5.30;;;1.55;;
9799;SDS011;4939;52.00085300;4.17406100;2023-07-29T01:23:34;4.68;;;1.45;;
9799;SDS011;4939;52.00085300;4.17406100;2023-07-29T01:26:01;7.30;;;2.10;;
9799;SDS011;4939;52.00085300;4.17406100;2023-07-29T01:28:27;4.78;;;1.40;;
9799;SDS011;4939;52.00085300;4.17406100;2023-07-29T01:30:57;7.93;;;1.90;;
9799;SDS011;4939;52.00085300;4.17406100;2023-07-29T01:33:33;3.92;;;1.33;;
9799;SDS011;4939;52.00085300;4.17406100;2023-07-29T01:36:15;6.15;;;1.40;;
9799;SDS011;4939;52.00085300;4.17406100;2023-07-29T01:38:48;6.90;;;1.60;;
9799;SDS011;4939;52.00085300;4.17406100;2023-07-29T01:41:16;4.65;;;1.33;;
9799;SDS011;4939;52.00085300;4.17406100;2023-07-29T01:43:43;8.50;;;1.30;;
9799;SDS011;4939;52.00085300;4.17406100;2023-07-29T01:46:10;7.30;;;1.50;;
9799;SDS011;4939;52.00085300;4.17406100;2023-07-29T01:48:38;5.03;;;1.10;;
9799;SDS011;4939;52.00085300;4.17406100;2023-07-29T01:51:04;4.65;;;1.40;;
9799;SDS011;4939;52.00085300;4.17406100;2023-07-29T01:53:30;5.05;;;1.50;;
9799;SDS011;4939;52.00085300;4.17406100;2023-07-29T01:55:56;4.30;;;1.40;;
9799;SDS011;4939;52.00085300;4.17406100;2023-07-29T01:58:22;4.32;;;1.40;;
9799;SDS011;4939;52.00085300;4.17406100;2023-07-29T02:00:48;4.35;;;1.52;;
9799;SDS011;4939;52.00085300;4.17406100;2023-07-29T02:03:14;5.03;;;1.60;;
9799;SDS011;4939;52.00085300;4.17406100;2023-07-29T02:05:39;4.25;;;1.50;;
9799;SDS011;4939;52.00085300;4.17406100;2023-07-29T02:08:07;7.85;;;1.55;;
9799;SDS011;4939;52.00085300;4.17406100;2023-07-29T02:10:33;3.65;;;1.17;;
9799;SDS011;4939;52.00085300;4.17406100;2023-07-29T02:12:58;3.03;;;1.30;;
9799;SDS011;4939;52.00085300;4.17406100;2023-07-29T02:15:24;4.30;;;1.50;;
9799;SDS011;4939;52.00085300;4.17406100;2023-07-29T02:17:49;5.03;;;1.70;;
9799;SDS011;4939;52.00085300;4.17406100;2023-07-29T02:20:15;4.63;;;1.30;;
9799;SDS011;4939;52.00085300;4.17406100;2023-07-29T02:22:41;5.78;;;1.45;;
9799;SDS011;4939;52.00085300;4.17406100;2023-07-29T02:25:07;5.15;;;1.23;;
9799;SDS011;4939;52.00085300;4.17406100;2023-07-29T02:27:32;4.93;;;1.92;;
9799;SDS011;4939;52.00085300;4.17406100;2023-07-29T02:29:58;3.35;;;1.40;;
9799;SDS011;4939;52.00085300;4.17406100;2023-07-29T02:32:24;5.85;;;1.30;;
9799;SDS011;4939;52.00085300;4.17406100;2023-07-29T02:34:50;7.20;;;1.65;;
9799;SDS011;4939;52.00085300;4.17406100;2023-07-29T02:37:15;5.53;;;1.60;;
9799;SDS011;4939;52.00085300;4.17406100;2023-07-29T02:39:41;6.38;;;1.50;;
9799;SDS011;4939;52.00085300;4.17406100;2023-07-29T02:42:07;6.35;;;1.58;;
9799;SDS011;4939;52.00085300;4.17406100;2023-07-29T02:44:33;8.40;;;1.85;;
9799;SDS011;4939;52.00085300;4.17406100;2023-07-29T02:46:58;6.55;;;1.55;;
9799;SDS011;4939;52.00085300;4.17406100;2023-07-29T02:49:24;4.65;;;1.92;;
9799;SDS011;4939;52.00085300;4.17406100;2023-07-29T02:51:50;6.63;;;1.35;;
9799;SDS011;4939;52.00085300;4.17406100;2023-07-29T02:54:15;4.03;;;1.40;;
9799;SDS011;4939;52.00085300;4.17406100;2023-07-29T02:56:41;4.10;;;1.25;;
9799;SDS011;4939;52.00085300;4.17406100;2023-07-29T02:59:08;6.55;;;1.75;;
9799;SDS011;4939;52.00085300;4.17406100;2023-07-29T03:01:33;6.85;;;2.15;;
9799;SDS011;4939;52.00085300;4.17406100;2023-07-29T03:03:59;5.60;;;1.40;;
9799;SDS011;4939;52.00085300;4.17406100;2023-07-29T03:06:25;6.40;;;1.50;;
9799;SDS011;4939;52.00085300;4.17406100;2023-07-29T03:08:50;4.65;;;1.50;;
9799;SDS011;4939;52.00085300;4.17406100;2023-07-29T03:11:16;5.65;;;1.73;;
9799;SDS011;4939;52.00085300;4.17406100;2023-07-29T03:13:42;8.85;;;1.67;;
9799;SDS011;4939;52.00085300;4.17406100;2023-07-29T03:16:09;6.28;;;1.55;;
9799;SDS011;4939;52.00085300;4.17406100;2023-07-29T03:18:39;4.35;;;1.60;;
9799;SDS011;4939;52.00085300;4.17406100;2023-07-29T03:21:05;8.57;;;1.88;;
9799;SDS011;4939;52.00085300;4.17406100;2023-07-29T03:23:31;4.40;;;1.60;;
9799;SDS011;4939;52.00085300;4.17406100;2023-07-29T03:25:59;4.60;;;1.85;;
9799;SDS011;4939;52.00085300;4.17406100;2023-07-29T03:28:29;5.07;;;1.65;;
9799;SDS011;4939;52.00085300;4.17406100;2023-07-29T03:30:57;7.05;;;1.90;;
9799;SDS011;4939;52.00085300;4.17406100;2023-07-29T03:33:23;9.07;;;1.80;;
9799;SDS011;4939;52.00085300;4.17406100;2023-07-29T03:35:50;7.28;;;1.88;;
9799;SDS011;4939;52.00085300;4.17406100;2023-07-29T03:38:16;8.98;;;1.98;;
9799;SDS011;4939;52.00085300;4.17406100;2023-07-29T03:40:41;4.80;;;1.70;;
9799;SDS011;4939;52.00085300;4.17406100;2023-07-29T03:43:08;6.70;;;2.15;;
9799;SDS011;4939;52.00085300;4.17406100;2023-07-29T03:45:34;4.68;;;1.75;;
9799;SDS011;4939;52.00085300;4.17406100;2023-07-29T03:48:00;9.52;;;2.00;;
9799;SDS011;4939;52.00085300;4.17406100;2023-07-29T03:50:26;4.93;;;1.90;;
9799;SDS011;4939;52.00085300;4.17406100;2023-07-29T03:52:53;5.18;;;1.90;;
9799;SDS011;4939;52.00085300;4.17406100;2023-07-29T03:55:18;7.10;;;1.60;;
9799;SDS011;4939;52.00085300;4.17406100;2023-07-29T03:57:44;7.88;;;1.90;;
9799;SDS011;4939;52.00085300;4.17406100;2023-07-29T04:00:10;6.55;;;1.25;;
9799;SDS011;4939;52.00085300;4.17406100;2023-07-29T04:02:36;7.30;;;1.63;;
9799;SDS011;4939;52.00085300;4.17406100;2023-07-29T04:05:03;6.97;;;1.60;;
9799;SDS011;4939;52.00085300;4.17406100;2023-07-29T04:07:29;7.97;;;1.70;;
9799;SDS011;4939;52.00085300;4.17406100;2023-07-29T04:09:55;8.52;;;2.10;;
9799;SDS011;4939;52.00085300;4.17406100;2023-07-29T04:12:21;7.25;;;2.00;;
9799;SDS011;4939;52.00085300;4.17406100;2023-07-29T04:14:47;7.00;;;2.05;;
9799;SDS011;4939;52.00085300;4.17406100;2023-07-29T04:17:13;8.25;;;2.08;;
9799;SDS011;4939;52.00085300;4.17406100;2023-07-29T04:19:39;8.23;;;2.10;;
9799;SDS011;4939;52.00085300;4.17406100;2023-07-29T04:22:05;6.90;;;2.28;;
9799;SDS011;4939;52.00085300;4.17406100;2023-07-29T04:24:31;5.72;;;2.10;;
9799;SDS011;4939;52.00085300;4.17406100;2023-07-29T04:26:56;8.48;;;2.40;;
9799;SDS011;4939;52.00085300;4.17406100;2023-07-29T04:29:22;7.55;;;2.00;;
9799;SDS011;4939;52.00085300;4.17406100;2023-07-29T04:31:48;7.80;;;2.22;;
9799;SDS011;4939;52.00085300;4.17406100;2023-07-29T04:34:14;7.15;;;2.00;;
9799;SDS011;4939;52.00085300;4.17406100;2023-07-29T04:36:40;7.82;;;1.52;;
9799;SDS011;4939;52.00085300;4.17406100;2023-07-29T04:39:06;8.57;;;1.80;;
9799;SDS011;4939;52.00085300;4.17406100;2023-07-29T04:41:31;5.80;;;1.80;;
9799;SDS011;4939;52.00085300;4.17406100;2023-07-29T04:43:57;3.47;;;1.50;;
9799;SDS011;4939;52.00085300;4.17406100;2023-07-29T04:46:22;6.57;;;1.75;;
9799;SDS011;4939;52.00085300;4.17406100;2023-07-29T04:48:48;4.78;;;1.92;;
9799;SDS011;4939;52.00085300;4.17406100;2023-07-29T04:51:14;9.18;;;1.92;;
9799;SDS011;4939;52.00085300;4.17406100;2023-07-29T04:53:39;9.32;;;1.90;;
9799;SDS011;4939;52.00085300;4.17406100;2023-07-29T04:56:05;4.07;;;1.23;;
9799;SDS011;4939;52.00085300;4.17406100;2023-07-29T04:58:31;5.00;;;1.55;;
9799;SDS011;4939;52.00085300;4.17406100;2023-07-29T05:00:59;6.10;;;1.50;;
9799;SDS011;4939;52.00085300;4.17406100;2023-07-29T05:03:25;8.05;;;1.60;;
9799;SDS011;4939;52.00085300;4.17406100;2023-07-29T05:05:51;4.45;;;1.20;;
9799;SDS011;4939;52.00085300;4.17406100;2023-07-29T05:08:18;6.38;;;1.48;;
9799;SDS011;4939;52.00085300;4.17406100;2023-07-29T05:10:44;5.70;;;1.30;;
9799;SDS011;4939;52.00085300;4.17406100;2023-07-29T05:13:13;5.15;;;1.40;;
9799;SDS011;4939;52.00085300;4.17406100;2023-07-29T05:15:39;4.25;;;1.27;;
9799;SDS011;4939;52.00085300;4.17406100;2023-07-29T05:18:04;7.72;;;1.60;;
9799;SDS011;4939;52.00085300;4.17406100;2023-07-29T05:20:30;4.22;;;1.33;;
9799;SDS011;4939;52.00085300;4.17406100;2023-07-29T05:22:55;3.13;;;1.20;;
9799;SDS011;4939;52.00085300;4.17406100;2023-07-29T05:25:21;5.45;;;1.50;;
9799;SDS011;4939;52.00085300;4.17406100;2023-07-29T05:27:47;4.78;;;1.23;;
9799;SDS011;4939;52.00085300;4.17406100;2023-07-29T05:30:12;4.88;;;1.25;;
9799;SDS011;4939;52.00085300;4.17406100;2023-07-29T05:32:38;5.28;;;1.27;;
9799;SDS011;4939;52.00085300;4.17406100;2023-07-29T05:35:04;5.68;;;1.30;;
9799;SDS011;4939;52.00085300;4.17406100;2023-07-29T05:37:30;3.80;;;1.13;;
9799;SDS011;4939;52.00085300;4.17406100;2023-07-29T05:39:56;3.22;;;0.98;;
9799;SDS011;4939;52.00085300;4.17406100;2023-07-29T05:42:21;3.58;;;1.10;;
9799;SDS011;4939;52.00085300;4.17406100;2023-07-29T05:44:47;2.83;;;1.27;;
9799;SDS011;4939;52.00085300;4.17406100;2023-07-29T05:47:12;5.00;;;1.30;;
9799;SDS011;4939;52.00085300;4.17406100;2023-07-29T05:49:38;6.53;;;1.30;;
9799;SDS011;4939;52.00085300;4.17406100;2023-07-29T05:52:04;7.97;;;1.52;;
9799;SDS011;4939;52.00085300;4.17406100;2023-07-29T05:54:30;4.40;;;1.00;;
9799;SDS011;4939;52.00085300;4.17406100;2023-07-29T05:56:55;3.83;;;1.10;;
9799;SDS011;4939;52.00085300;4.17406100;2023-07-29T05:59:21;4.47;;;1.20;;
9799;SDS011;4939;52.00085300;4.17406100;2023-07-29T06:01:47;7.78;;;1.30;;
9799;SDS011;4939;52.00085300;4.17406100;2023-07-29T06:04:12;3.20;;;1.10;;
9799;SDS011;4939;52.00085300;4.17406100;2023-07-29T06:06:38;5.40;;;1.40;;
9799;SDS011;4939;52.00085300;4.17406100;2023-07-29T06:09:04;4.82;;;1.13;;
9799;SDS011;4939;52.00085300;4.17406100;2023-07-29T06:11:29;4.65;;;1.35;;
9799;SDS011;4939;52.00085300;4.17406100;2023-07-29T06:13:55;7.40;;;1.40;;
9799;SDS011;4939;52.00085300;4.17406100;2023-07-29T06:16:21;6.10;;;1.58;;
9799;SDS011;4939;52.00085300;4.17406100;2023-07-29T06:18:46;3.75;;;1.40;;
9799;SDS011;4939;52.00085300;4.17406100;2023-07-29T06:21:12;4.75;;;1.10;;
9799;SDS011;4939;52.00085300;4.17406100;2023-07-29T06:23:42;5.13;;;1.20;;
9799;SDS011;4939;52.00085300;4.17406100;2023-07-29T06:26:08;5.18;;;0.98;;
9799;SDS011;4939;52.00085300;4.17406100;2023-07-29T06:28:34;3.65;;;1.00;;
9799;SDS011;4939;52.00085300;4.17406100;2023-07-29T06:31:00;4.28;;;0.80;;
9799;SDS011;4939;52.00085300;4.17406100;2023-07-29T06:33:25;6.30;;;1.15;;
9799;SDS011;4939;52.00085300;4.17406100;2023-07-29T06:35:51;5.57;;;1.45;;
9799;SDS011;4939;52.00085300;4.17406100;2023-07-29T06:38:17;3.65;;;1.10;;
9799;SDS011;4939;52.00085300;4.17406100;2023-07-29T06:40:46;3.00;;;1.00;;
9799;SDS011;4939;52.00085300;4.17406100;2023-07-29T06:43:13;4.82;;;1.15;;
9799;SDS011;4939;52.00085300;4.17406100;2023-07-29T06:45:38;3.72;;;1.05;;
9799;SDS011;4939;52.00085300;4.17406100;2023-07-29T06:48:04;3.53;;;1.00;;
9799;SDS011;4939;52.00085300;4.17406100;2023-07-29T06:50:30;5.50;;;1.08;;
9799;SDS011;4939;52.00085300;4.17406100;2023-07-29T06:52:56;6.30;;;1.65;;
9799;SDS011;4939;52.00085300;4.17406100;2023-07-29T06:55:21;3.55;;;0.90;;
9799;SDS011;4939;52.00085300;4.17406100;2023-07-29T06:57:47;5.22;;;1.13;;
9799;SDS011;4939;52.00085300;4.17406100;2023-07-29T07:00:13;3.65;;;1.23;;
9799;SDS011;4939;52.00085300;4.17406100;2023-07-29T07:02:38;3.47;;;1.10;;
9799;SDS011;4939;52.00085300;4.17406100;2023-07-29T07:05:04;3.58;;;1.10;;
9799;SDS011;4939;52.00085300;4.17406100;2023-07-29T07:07:30;6.68;;;1.20;;
9799;SDS011;4939;52.00085300;4.17406100;2023-07-29T07:09:56;5.70;;;1.10;;
9799;SDS011;4939;52.00085300;4.17406100;2023-07-29T07:12:21;1.98;;;0.90;;
9799;SDS011;4939;52.00085300;4.17406100;2023-07-29T07:14:47;5.38;;;1.35;;
9799;SDS011;4939;52.00085300;4.17406100;2023-07-29T07:17:13;2.97;;;0.93;;
9799;SDS011;4939;52.00085300;4.17406100;2023-07-29T07:19:39;6.32;;;1.10;;
9799;SDS011;4939;52.00085300;4.17406100;2023-07-29T07:22:05;4.00;;;1.15;;
9799;SDS011;4939;52.00085300;4.17406100;2023-07-29T07:24:30;6.72;;;1.05;;
9799;SDS011;4939;52.00085300;4.17406100;2023-07-29T07:26:56;4.05;;;1.00;;
9799;SDS011;4939;52.00085300;4.17406100;2023-07-29T07:29:22;3.97;;;1.20;;
9799;SDS011;4939;52.00085300;4.17406100;2023-07-29T07:31:51;7.35;;;1.27;;
9799;SDS011;4939;52.00085300;4.17406100;2023-07-29T07:34:22;4.13;;;1.10;;
9799;SDS011;4939;52.00085300;4.17406100;2023-07-29T07:36:48;4.00;;;0.93;;
9799;SDS011;4939;52.00085300;4.17406100;2023-07-29T07:39:14;5.43;;;1.85;;
9799;SDS011;4939;52.00085300;4.17406100;2023-07-29T07:41:40;3.20;;;1.27;;
9799;SDS011;4939;52.00085300;4.17406100;2023-07-29T07:44:06;4.25;;;1.30;;
9799;SDS011;4939;52.00085300;4.17406100;2023-07-29T07:46:32;3.50;;;1.23;;
9799;SDS011;4939;52.00085300;4.17406100;2023-07-29T07:48:58;6.35;;;1.20;;
9799;SDS011;4939;52.00085300;4.17406100;2023-07-29T07:51:23;3.70;;;0.98;;
9799;SDS011;4939;52.00085300;4.17406100;2023-07-29T07:53:49;3.35;;;1.25;;
9799;SDS011;4939;52.00085300;4.17406100;2023-07-29T07:56:14;2.65;;;0.90;;
9799;SDS011;4939;52.00085300;4.17406100;2023-07-29T07:58:40;4.40;;;1.00;;
9799;SDS011;4939;52.00085300;4.17406100;2023-07-29T08:01:06;3.15;;;1.20;;
9799;SDS011;4939;52.00085300;4.17406100;2023-07-29T08:03:33;3.63;;;1.70;;
9799;SDS011;4939;52.00085300;4.17406100;2023-07-29T08:05:59;3.45;;;1.10;;
9799;SDS011;4939;52.00085300;4.17406100;2023-07-29T08:08:25;5.18;;;1.25;;
9799;SDS011;4939;52.00085300;4.17406100;2023-07-29T08:10:55;5.53;;;1.30;;
9799;SDS011;4939;52.00085300;4.17406100;2023-07-29T08:13:22;4.40;;;1.30;;
9799;SDS011;4939;52.00085300;4.17406100;2023-07-29T08:15:48;5.85;;;1.35;;
9799;SDS011;4939;52.00085300;4.17406100;2023-07-29T08:18:15;3.97;;;1.40;;
9799;SDS011;4939;52.00085300;4.17406100;2023-07-29T08:20:41;4.60;;;1.17;;
9799;SDS011;4939;52.00085300;4.17406100;2023-07-29T08:23:16;4.47;;;1.73;;
9799;SDS011;4939;52.00085300;4.17406100;2023-07-29T08:25:41;4.75;;;1.30;;
9799;SDS011;4939;52.00085300;4.17406100;2023-07-29T08:28:07;5.45;;;1.40;;
9799;SDS011;4939;52.00085300;4.17406100;2023-07-29T08:30:32;5.70;;;1.70;;
9799;SDS011;4939;52.00085300;4.17406100;2023-07-29T08:32:58;4.75;;;1.30;;
9799;SDS011;4939;52.00085300;4.17406100;2023-07-29T08:35:23;5.28;;;1.35;;
9799;SDS011;4939;52.00085300;4.17406100;2023-07-29T08:37:49;6.53;;;1.25;;
9799;SDS011;4939;52.00085300;4.17406100;2023-07-29T08:40:15;4.13;;;1.10;;
9799;SDS011;4939;52.00085300;4.17406100;2023-07-29T08:42:41;4.63;;;1.25;;
9799;SDS011;4939;52.00085300;4.17406100;2023-07-29T08:45:10;4.50;;;1.23;;
9799;SDS011;4939;52.00085300;4.17406100;2023-07-29T08:47:36;6.32;;;1.90;;
9799;SDS011;4939;52.00085300;4.17406100;2023-07-29T08:50:02;6.40;;;2.10;;
9799;SDS011;4939;52.00085300;4.17406100;2023-07-29T08:52:29;3.75;;;1.98;;
9799;SDS011;4939;52.00085300;4.17406100;2023-07-29T08:54:57;5.03;;;2.10;;
9799;SDS011;4939;52.00085300;4.17406100;2023-07-29T08:57:23;8.57;;;2.30;;
9799;SDS011;4939;52.00085300;4.17406100;2023-07-29T08:59:49;8.88;;;2.20;;
9799;SDS011;4939;52.00085300;4.17406100;2023-07-29T09:02:15;5.20;;;2.13;;
9799;SDS011;4939;52.00085300;4.17406100;2023-07-29T09:04:40;4.80;;;2.00;;
9799;SDS011;4939;52.00085300;4.17406100;2023-07-29T09:07:07;5.88;;;2.20;;
9799;SDS011;4939;52.00085300;4.17406100;2023-07-29T09:09:33;4.65;;;2.33;;
9799;SDS011;4939;52.00085300;4.17406100;2023-07-29T09:11:59;6.68;;;2.50;;
9799;SDS011;4939;52.00085300;4.17406100;2023-07-29T09:14:24;6.20;;;2.33;;
9799;SDS011;4939;52.00085300;4.17406100;2023-07-29T09:16:50;7.50;;;3.08;;
9799;SDS011;4939;52.00085300;4.17406100;2023-07-29T09:19:16;4.30;;;2.20;;
9799;SDS011;4939;52.00085300;4.17406100;2023-07-29T09:21:42;5.70;;;2.30;;
9799;SDS011;4939;52.00085300;4.17406100;2023-07-29T09:24:12;5.85;;;2.53;;
9799;SDS011;4939;52.00085300;4.17406100;2023-07-29T09:26:40;6.38;;;2.13;;
9799;SDS011;4939;52.00085300;4.17406100;2023-07-29T09:29:15;3.63;;;1.77;;
9799;SDS011;4939;52.00085300;4.17406100;2023-07-29T09:31:40;5.45;;;1.63;;
9799;SDS011;4939;52.00085300;4.17406100;2023-07-29T09:34:06;2.95;;;1.55;;
9799;SDS011;4939;52.00085300;4.17406100;2023-07-29T09:36:32;4.97;;;1.55;;
9799;SDS011;4939;52.00085300;4.17406100;2023-07-29T09:38:58;4.60;;;1.60;;
9799;SDS011;4939;52.00085300;4.17406100;2023-07-29T09:41:25;6.30;;;1.75;;
9799;SDS011;4939;52.00085300;4.17406100;2023-07-29T09:43:56;7.03;;;1.50;;
9799;SDS011;4939;52.00085300;4.17406100;2023-07-29T09:46:31;4.28;;;1.42;;
9799;SDS011;4939;52.00085300;4.17406100;2023-07-29T09:48:58;3.05;;;1.35;;
9799;SDS011;4939;52.00085300;4.17406100;2023-07-29T09:51:24;3.42;;;1.10;;
9799;SDS011;4939;52.00085300;4.17406100;2023-07-29T09:53:50;4.38;;;1.40;;
9799;SDS011;4939;52.00085300;4.17406100;2023-07-29T09:56:17;4.13;;;1.20;;
9799;SDS011;4939;52.00085300;4.17406100;2023-07-29T09:58:46;3.60;;;1.10;;
9799;SDS011;4939;52.00085300;4.17406100;2023-07-29T10:01:14;4.63;;;1.15;;
9799;SDS011;4939;52.00085300;4.17406100;2023-07-29T10:03:40;3.70;;;1.20;;
9799;SDS011;4939;52.00085300;4.17406100;2023-07-29T10:06:07;4.03;;;0.80;;
9799;SDS011;4939;52.00085300;4.17406100;2023-07-29T10:08:33;4.00;;;0.70;;
9799;SDS011;4939;52.00085300;4.17406100;2023-07-29T10:11:06;1.35;;;0.47;;
9799;SDS011;4939;52.00085300;4.17406100;2023-07-29T10:13:33;4.13;;;0.85;;
9799;SDS011;4939;52.00085300;4.17406100;2023-07-29T10:15:59;3.67;;;0.70;;
9799;SDS011;4939;52.00085300;4.17406100;2023-07-29T10:18:28;3.35;;;0.80;;
9799;SDS011;4939;52.00085300;4.17406100;2023-07-29T10:20:56;3.28;;;0.65;;
9799;SDS011;4939;52.00085300;4.17406100;2023-07-29T10:23:24;5.65;;;0.75;;
9799;SDS011;4939;52.00085300;4.17406100;2023-07-29T10:25:55;4.30;;;1.10;;
9799;SDS011;4939;52.00085300;4.17406100;2023-07-29T10:28:30;5.07;;;1.00;;
9799;SDS011;4939;52.00085300;4.17406100;2023-07-29T10:30:57;4.60;;;1.08;;
9799;SDS011;4939;52.00085300;4.17406100;2023-07-29T10:33:23;6.32;;;1.55;;
9799;SDS011;4939;52.00085300;4.17406100;2023-07-29T10:35:50;4.90;;;1.02;;
9799;SDS011;4939;52.00085300;4.17406100;2023-07-29T10:38:17;5.65;;;1.10;;
9799;SDS011;4939;52.00085300;4.17406100;2023-07-29T10:40:47;5.82;;;1.10;;
9799;SDS011;4939;52.00085300;4.17406100;2023-07-29T10:43:32;2.72;;;1.10;;
9799;SDS011;4939;52.00085300;4.17406100;2023-07-29T10:48:55;3.00;;;1.17;;
9799;SDS011;4939;52.00085300;4.17406100;2023-07-29T10:51:22;3.28;;;1.50;;
9799;SDS011;4939;52.00085300;4.17406100;2023-07-29T10:54:01;4.05;;;1.75;;
9799;SDS011;4939;52.00085300;4.17406100;2023-07-29T10:58:55;4.57;;;1.60;;
9799;SDS011;4939;52.00085300;4.17406100;2023-07-29T11:01:29;5.78;;;2.15;;
9799;SDS011;4939;52.00085300;4.17406100;2023-07-29T11:12:34;5.13;;;1.90;;
9799;SDS011;4939;52.00085300;4.17406100;2023-07-29T11:15:01;3.22;;;1.10;;
9799;SDS011;4939;52.00085300;4.17406100;2023-07-29T11:17:30;2.33;;;0.90;;
9799;SDS011;4939;52.00085300;4.17406100;2023-07-29T11:19:59;3.05;;;1.25;;
9799;SDS011;4939;52.00085300;4.17406100;2023-07-29T11:22:26;2.42;;;1.00;;
9799;SDS011;4939;52.00085300;4.17406100;2023-07-29T11:24:53;3.78;;;1.10;;
9799;SDS011;4939;52.00085300;4.17406100;2023-07-29T11:27:19;3.95;;;1.30;;
9799;SDS011;4939;52.00085300;4.17406100;2023-07-29T11:29:44;6.80;;;1.40;;
9799;SDS011;4939;52.00085300;4.17406100;2023-07-29T11:32:10;5.70;;;1.20;;
9799;SDS011;4939;52.00085300;4.17406100;2023-07-29T11:34:35;3.53;;;1.10;;
9799;SDS011;4939;52.00085300;4.17406100;2023-07-29T11:37:01;4.82;;;1.40;;
9799;SDS011;4939;52.00085300;4.17406100;2023-07-29T11:39:27;3.20;;;1.23;;
9799;SDS011;4939;52.00085300;4.17406100;2023-07-29T11:41:52;3.67;;;1.27;;
9799;SDS011;4939;52.00085300;4.17406100;2023-07-29T11:44:18;4.93;;;1.10;;
9799;SDS011;4939;52.00085300;4.17406100;2023-07-29T11:46:43;2.67;;;1.10;;
9799;SDS011;4939;52.00085300;4.17406100;2023-07-29T11:49:09;4.05;;;1.33;;
9799;SDS011;4939;52.00085300;4.17406100;2023-07-29T11:51:38;1.80;;;0.80;;
9799;SDS011;4939;52.00085300;4.17406100;2023-07-29T11:54:06;3.75;;;1.10;;
9799;SDS011;4939;52.00085300;4.17406100;2023-07-29T11:56:32;2.90;;;0.98;;
9799;SDS011;4939;52.00085300;4.17406100;2023-07-29T11:58:57;2.00;;;0.68;;
9799;SDS011;4939;52.00085300;4.17406100;2023-07-29T12:01:23;3.58;;;0.90;;
9799;SDS011;4939;52.00085300;4.17406100;2023-07-29T12:03:49;2.42;;;0.80;;
9799;SDS011;4939;52.00085300;4.17406100;2023-07-29T12:06:15;3.03;;;0.80;;
9799;SDS011;4939;52.00085300;4.17406100;2023-07-29T12:08:42;3.10;;;0.90;;
9799;SDS011;4939;52.00085300;4.17406100;2023-07-29T12:11:08;1.90;;;1.00;;
9799;SDS011;4939;52.00085300;4.17406100;2023-07-29T12:13:36;2.15;;;1.10;;
9799;SDS011;4939;52.00085300;4.17406100;2023-07-29T12:16:02;3.83;;;0.88;;
9799;SDS011;4939;52.00085300;4.17406100;2023-07-29T12:18:35;2.80;;;0.85;;
9799;SDS011;4939;52.00085300;4.17406100;2023-07-29T12:21:01;2.17;;;0.93;;
9799;SDS011;4939;52.00085300;4.17406100;2023-07-29T12:23:28;2.10;;;0.95;;
9799;SDS011;4939;52.00085300;4.17406100;2023-07-29T12:25:58;3.28;;;0.93;;
9799;SDS011;4939;52.00085300;4.17406100;2023-07-29T12:28:24;3.28;;;0.90;;
9799;SDS011;4939;52.00085300;4.17406100;2023-07-29T12:30:54;6.15;;;1.10;;
9799;SDS011;4939;52.00085300;4.17406100;2023-07-29T12:33:30;2.47;;;0.80;;
9799;SDS011;4939;52.00085300;4.17406100;2023-07-29T12:36:00;2.45;;;0.80;;
9799;SDS011;4939;52.00085300;4.17406100;2023-07-29T12:38:27;3.90;;;1.20;;
9799;SDS011;4939;52.00085300;4.17406100;2023-07-29T12:40:53;3.10;;;1.00;;
9799;SDS011;4939;52.00085300;4.17406100;2023-07-29T12:43:20;3.88;;;1.10;;
9799;SDS011;4939;52.00085300;4.17406100;2023-07-29T12:45:48;3.65;;;1.13;;
9799;SDS011;4939;52.00085300;4.17406100;2023-07-29T12:48:14;2.85;;;1.10;;
9799;SDS011;4939;52.00085300;4.17406100;2023-07-29T12:50:40;2.70;;;1.15;;
9799;SDS011;4939;52.00085300;4.17406100;2023-07-29T12:53:06;3.78;;;1.15;;
9799;SDS011;4939;52.00085300;4.17406100;2023-07-29T12:55:34;4.20;;;1.10;;
9799;SDS011;4939;52.00085300;4.17406100;2023-07-29T12:58:00;2.70;;;1.15;;
9799;SDS011;4939;52.00085300;4.17406100;2023-07-29T13:00:25;3.20;;;1.10;;
9799;SDS011;4939;52.00085300;4.17406100;2023-07-29T13:02:51;4.47;;;1.10;;
9799;SDS011;4939;52.00085300;4.17406100;2023-07-29T13:05:17;4.68;;;1.10;;
9799;SDS011;4939;52.00085300;4.17406100;2023-07-29T13:07:43;2.63;;;1.08;;
9799;SDS011;4939;52.00085300;4.17406100;2023-07-29T13:10:09;2.88;;;1.05;;
9799;SDS011;4939;52.00085300;4.17406100;2023-07-29T13:12:35;4.32;;;1.17;;
9799;SDS011;4939;52.00085300;4.17406100;2023-07-29T13:15:01;2.13;;;0.95;;
9799;SDS011;4939;52.00085300;4.17406100;2023-07-29T13:17:27;2.55;;;1.05;;
9799;SDS011;4939;52.00085300;4.17406100;2023-07-29T13:19:52;3.33;;;1.08;;
9799;SDS011;4939;52.00085300;4.17406100;2023-07-29T13:22:19;3.05;;;1.10;;
9799;SDS011;4939;52.00085300;4.17406100;2023-07-29T13:24:45;2.88;;;0.85;;
9799;SDS011;4939;52.00085300;4.17406100;2023-07-29T13:27:11;3.45;;;1.20;;
9799;SDS011;4939;52.00085300;4.17406100;2023-07-29T13:29:36;3.97;;;1.40;;